sensor_id;sensor_type;location;lat;lon;timestamp;P1;durP1;ratioP1;P2;durP2;ratioP2
19278;SDS011;9773;47.062;15.446;2023-04-20T00:00:05;0.90;;;0.90;;
19278;SDS011;9773;47.062;15.446;2023-04-20T00:02:35;0.80;;;0.80;;
19278;SDS011;9773;47.062;15.446;2023-04-20T00:05:02;0.80;;;0.80;;
19278;SDS011;9773;47.062;15.446;2023-04-20T00:07:29;0.80;;;0.80;;
19278;SDS011;9773;47.062;15.446;2023-04-20T00:09:56;0.90;;;0.90;;
19278;SDS011;9773;47.062;15.446;2023-04-20T00:12:21;0.90;;;0.90;;
19278;SDS011;9773;47.062;15.446;2023-04-20T00:14:47;0.80;;;0.80;;
19278;SDS011;9773;47.062;15.446;2023-04-20T00:17:13;1.03;;;0.93;;
19278;SDS011;9773;47.062;15.446;2023-04-20T00:19:38;1.30;;;0.90;;
19278;SDS011;9773;47.062;15.446;2023-04-20T00:22:04;0.80;;;0.80;;
19278;SDS011;9773;47.062;15.446;2023-04-20T00:24:30;0.77;;;0.77;;
19278;SDS011;9773;47.062;15.446;2023-04-20T00:26:56;0.93;;;0.93;;
19278;SDS011;9773;47.062;15.446;2023-04-20T00:29:22;1.40;;;0.80;;
19278;SDS011;9773;47.062;15.446;2023-04-20T00:31:51;1.80;;;0.80;;
19278;SDS011;9773;47.062;15.446;2023-04-20T00:34:19;0.80;;;0.80;;
19278;SDS011;9773;47.062;15.446;2023-04-20T00:36:46;0.80;;;0.80;;
19278;SDS011;9773;47.062;15.446;2023-04-20T00:39:12;0.97;;;0.97;;
19278;SDS011;9773;47.062;15.446;2023-04-20T00:41:38;0.57;;;0.57;;
19278;SDS011;9773;47.062;15.446;2023-04-20T00:44:05;0.90;;;0.90;;
19278;SDS011;9773;47.062;15.446;2023-04-20T00:46:37;0.77;;;0.77;;
19278;SDS011;9773;47.062;15.446;2023-04-20T00:49:04;0.77;;;0.77;;
19278;SDS011;9773;47.062;15.446;2023-04-20T00:51:30;0.93;;;0.90;;
19278;SDS011;9773;47.062;15.446;2023-04-20T00:53:57;1.10;;;1.00;;
19278;SDS011;9773;47.062;15.446;2023-04-20T00:56:23;0.93;;;0.93;;
19278;SDS011;9773;47.062;15.446;2023-04-20T00:58:49;1.07;;;1.07;;
19278;SDS011;9773;47.062;15.446;2023-04-20T01:01:14;1.00;;;1.00;;
19278;SDS011;9773;47.062;15.446;2023-04-20T01:03:43;1.13;;;1.00;;
19278;SDS011;9773;47.062;15.446;2023-04-20T01:06:09;0.70;;;0.70;;
19278;SDS011;9773;47.062;15.446;2023-04-20T01:08:44;0.90;;;0.80;;
19278;SDS011;9773;47.062;15.446;2023-04-20T01:11:14;0.90;;;0.90;;
19278;SDS011;9773;47.062;15.446;2023-04-20T01:13:39;1.07;;;1.00;;
19278;SDS011;9773;47.062;15.446;2023-04-20T01:16:05;1.10;;;1.10;;
19278;SDS011;9773;47.062;15.446;2023-04-20T01:18:44;0.70;;;0.70;;
19278;SDS011;9773;47.062;15.446;2023-04-20T01:21:12;0.93;;;0.93;;
19278;SDS011;9773;47.062;15.446;2023-04-20T01:23:40;1.03;;;1.03;;
19278;SDS011;9773;47.062;15.446;2023-04-20T01:26:07;0.90;;;0.90;;
19278;SDS011;9773;47.062;15.446;2023-04-20T01:28:34;0.90;;;0.90;;
19278;SDS011;9773;47.062;15.446;2023-04-20T01:31:01;0.90;;;0.90;;
19278;SDS011;9773;47.062;15.446;2023-04-20T01:33:27;0.93;;;0.93;;
19278;SDS011;9773;47.062;15.446;2023-04-20T01:35:53;0.80;;;0.80;;
19278;SDS011;9773;47.062;15.446;2023-04-20T01:38:19;0.83;;;0.83;;
19278;SDS011;9773;47.062;15.446;2023-04-20T01:40:46;0.77;;;0.77;;
19278;SDS011;9773;47.062;15.446;2023-04-20T01:43:12;0.87;;;0.87;;
19278;SDS011;9773;47.062;15.446;2023-04-20T01:45:38;0.90;;;0.90;;
19278;SDS011;9773;47.062;15.446;2023-04-20T01:48:04;1.00;;;1.00;;
19278;SDS011;9773;47.062;15.446;2023-04-20T01:50:30;2.23;;;1.10;;
19278;SDS011;9773;47.062;15.446;2023-04-20T01:52:56;0.70;;;0.70;;
19278;SDS011;9773;47.062;15.446;2023-04-20T01:55:21;0.80;;;0.80;;
19278;SDS011;9773;47.062;15.446;2023-04-20T01:57:47;1.00;;;1.00;;
19278;SDS011;9773;47.062;15.446;2023-04-20T02:00:13;0.80;;;0.80;;
19278;SDS011;9773;47.062;15.446;2023-04-20T02:02:40;2.10;;;0.90;;
19278;SDS011;9773;47.062;15.446;2023-04-20T02:05:06;0.80;;;0.80;;
19278;SDS011;9773;47.062;15.446;2023-04-20T02:07:35;1.10;;;1.10;;
19278;SDS011;9773;47.062;15.446;2023-04-20T02:10:01;0.93;;;0.93;;
19278;SDS011;9773;47.062;15.446;2023-04-20T02:12:27;0.87;;;0.87;;
19278;SDS011;9773;47.062;15.446;2023-04-20T02:14:53;1.07;;;1.07;;
19278;SDS011;9773;47.062;15.446;2023-04-20T02:17:19;1.00;;;1.00;;
19278;SDS011;9773;47.062;15.446;2023-04-20T02:19:44;0.90;;;0.90;;
19278;SDS011;9773;47.062;15.446;2023-04-20T02:22:11;0.93;;;0.93;;
19278;SDS011;9773;47.062;15.446;2023-04-20T02:24:36;0.90;;;0.90;;
19278;SDS011;9773;47.062;15.446;2023-04-20T02:27:02;2.53;;;0.80;;
19278;SDS011;9773;47.062;15.446;2023-04-20T02:29:28;1.13;;;1.13;;
19278;SDS011;9773;47.062;15.446;2023-04-20T02:31:57;0.87;;;0.87;;
19278;SDS011;9773;47.062;15.446;2023-04-20T02:34:23;0.63;;;0.63;;
19278;SDS011;9773;47.062;15.446;2023-04-20T02:36:48;1.13;;;1.13;;
19278;SDS011;9773;47.062;15.446;2023-04-20T02:39:14;1.03;;;1.03;;
19278;SDS011;9773;47.062;15.446;2023-04-20T02:41:40;1.10;;;1.10;;
19278;SDS011;9773;47.062;15.446;2023-04-20T02:44:05;1.10;;;1.10;;
19278;SDS011;9773;47.062;15.446;2023-04-20T02:46:31;1.00;;;1.00;;
19278;SDS011;9773;47.062;15.446;2023-04-20T02:48:57;1.00;;;1.00;;
19278;SDS011;9773;47.062;15.446;2023-04-20T02:51:23;0.73;;;0.73;;
19278;SDS011;9773;47.062;15.446;2023-04-20T02:53:48;1.10;;;1.10;;
19278;SDS011;9773;47.062;15.446;2023-04-20T02:56:14;0.93;;;0.93;;
19278;SDS011;9773;47.062;15.446;2023-04-20T02:58:40;0.77;;;0.77;;
19278;SDS011;9773;47.062;15.446;2023-04-20T03:01:11;0.90;;;0.90;;
19278;SDS011;9773;47.062;15.446;2023-04-20T03:03:37;0.97;;;0.97;;
19278;SDS011;9773;47.062;15.446;2023-04-20T03:06:02;1.00;;;1.00;;
19278;SDS011;9773;47.062;15.446;2023-04-20T03:08:30;1.20;;;1.10;;
19278;SDS011;9773;47.062;15.446;2023-04-20T03:10:56;0.90;;;0.90;;
19278;SDS011;9773;47.062;15.446;2023-04-20T03:13:22;0.80;;;0.80;;
19278;SDS011;9773;47.062;15.446;2023-04-20T03:15:48;1.13;;;1.13;;
19278;SDS011;9773;47.062;15.446;2023-04-20T03:18:14;1.30;;;1.30;;
19278;SDS011;9773;47.062;15.446;2023-04-20T03:20:39;1.07;;;1.07;;
19278;SDS011;9773;47.062;15.446;2023-04-20T03:23:05;1.07;;;1.07;;
19278;SDS011;9773;47.062;15.446;2023-04-20T03:25:31;1.10;;;1.10;;
19278;SDS011;9773;47.062;15.446;2023-04-20T03:27:57;0.90;;;0.90;;
19278;SDS011;9773;47.062;15.446;2023-04-20T03:30:23;1.20;;;1.20;;
19278;SDS011;9773;47.062;15.446;2023-04-20T03:32:49;1.33;;;1.33;;
19278;SDS011;9773;47.062;15.446;2023-04-20T03:35:15;1.60;;;1.53;;
19278;SDS011;9773;47.062;15.446;2023-04-20T03:37:41;1.40;;;1.40;;
19278;SDS011;9773;47.062;15.446;2023-04-20T03:40:07;1.43;;;1.43;;
19278;SDS011;9773;47.062;15.446;2023-04-20T03:42:34;1.40;;;1.30;;
19278;SDS011;9773;47.062;15.446;2023-04-20T03:45:01;1.27;;;1.27;;
19278;SDS011;9773;47.062;15.446;2023-04-20T03:47:27;1.17;;;1.17;;
19278;SDS011;9773;47.062;15.446;2023-04-20T03:49:53;1.40;;;1.40;;
19278;SDS011;9773;47.062;15.446;2023-04-20T03:52:18;1.63;;;1.53;;
19278;SDS011;9773;47.062;15.446;2023-04-20T03:54:44;1.30;;;1.30;;
19278;SDS011;9773;47.062;15.446;2023-04-20T03:57:10;1.40;;;1.40;;
19278;SDS011;9773;47.062;15.446;2023-04-20T03:59:36;1.40;;;1.40;;
19278;SDS011;9773;47.062;15.446;2023-04-20T04:02:02;1.93;;;1.73;;
19278;SDS011;9773;47.062;15.446;2023-04-20T04:04:30;4.60;;;1.30;;
19278;SDS011;9773;47.062;15.446;2023-04-20T04:06:56;1.37;;;1.30;;
19278;SDS011;9773;47.062;15.446;2023-04-20T04:09:22;2.00;;;1.90;;
19278;SDS011;9773;47.062;15.446;2023-04-20T04:11:50;1.67;;;1.57;;
19278;SDS011;9773;47.062;15.446;2023-04-20T04:14:16;1.40;;;1.40;;
19278;SDS011;9773;47.062;15.446;2023-04-20T04:16:42;1.70;;;1.60;;
19278;SDS011;9773;47.062;15.446;2023-04-20T04:19:07;3.87;;;1.50;;
19278;SDS011;9773;47.062;15.446;2023-04-20T04:21:33;1.40;;;1.30;;
19278;SDS011;9773;47.062;15.446;2023-04-20T04:23:59;1.63;;;1.53;;
19278;SDS011;9773;47.062;15.446;2023-04-20T04:26:25;1.43;;;1.43;;
19278;SDS011;9773;47.062;15.446;2023-04-20T04:28:51;1.70;;;1.60;;
19278;SDS011;9773;47.062;15.446;2023-04-20T04:31:16;1.60;;;1.50;;
19278;SDS011;9773;47.062;15.446;2023-04-20T04:33:46;1.63;;;1.43;;
19278;SDS011;9773;47.062;15.446;2023-04-20T04:36:12;1.40;;;1.40;;
19278;SDS011;9773;47.062;15.446;2023-04-20T04:38:39;2.07;;;1.97;;
19278;SDS011;9773;47.062;15.446;2023-04-20T04:41:08;2.00;;;1.90;;
19278;SDS011;9773;47.062;15.446;2023-04-20T04:43:38;1.40;;;1.40;;
19278;SDS011;9773;47.062;15.446;2023-04-20T04:46:05;1.70;;;1.60;;
19278;SDS011;9773;47.062;15.446;2023-04-20T04:48:34;3.77;;;1.83;;
19278;SDS011;9773;47.062;15.446;2023-04-20T04:51:01;2.23;;;2.03;;
19278;SDS011;9773;47.062;15.446;2023-04-20T04:53:27;1.60;;;1.60;;
19278;SDS011;9773;47.062;15.446;2023-04-20T04:55:53;1.80;;;1.70;;
19278;SDS011;9773;47.062;15.446;2023-04-20T04:58:18;1.90;;;1.70;;
19278;SDS011;9773;47.062;15.446;2023-04-20T05:00:44;1.80;;;1.70;;
19278;SDS011;9773;47.062;15.446;2023-04-20T05:03:10;1.83;;;1.77;;
19278;SDS011;9773;47.062;15.446;2023-04-20T05:05:39;2.17;;;1.70;;
19278;SDS011;9773;47.062;15.446;2023-04-20T05:08:05;1.70;;;1.60;;
19278;SDS011;9773;47.062;15.446;2023-04-20T05:10:33;1.70;;;1.67;;
19278;SDS011;9773;47.062;15.446;2023-04-20T05:13:02;1.70;;;1.60;;
19278;SDS011;9773;47.062;15.446;2023-04-20T05:15:28;2.07;;;1.97;;
19278;SDS011;9773;47.062;15.446;2023-04-20T05:17:54;1.90;;;1.80;;
19278;SDS011;9773;47.062;15.446;2023-04-20T05:20:20;1.83;;;1.70;;
19278;SDS011;9773;47.062;15.446;2023-04-20T05:22:46;1.70;;;1.70;;
19278;SDS011;9773;47.062;15.446;2023-04-20T05:25:12;1.60;;;1.57;;
19278;SDS011;9773;47.062;15.446;2023-04-20T05:27:37;3.90;;;2.10;;
19278;SDS011;9773;47.062;15.446;2023-04-20T05:30:03;1.90;;;1.80;;
19278;SDS011;9773;47.062;15.446;2023-04-20T05:32:30;1.90;;;1.80;;
19278;SDS011;9773;47.062;15.446;2023-04-20T05:34:56;1.73;;;1.70;;
19278;SDS011;9773;47.062;15.446;2023-04-20T05:37:22;1.70;;;1.60;;
19278;SDS011;9773;47.062;15.446;2023-04-20T05:39:48;2.10;;;2.00;;
19278;SDS011;9773;47.062;15.446;2023-04-20T05:42:14;2.00;;;1.90;;
19278;SDS011;9773;47.062;15.446;2023-04-20T05:44:40;1.83;;;1.73;;
19278;SDS011;9773;47.062;15.446;2023-04-20T05:47:07;1.90;;;1.80;;
19278;SDS011;9773;47.062;15.446;2023-04-20T05:49:34;2.57;;;1.90;;
19278;SDS011;9773;47.062;15.446;2023-04-20T05:52:00;2.10;;;2.00;;
19278;SDS011;9773;47.062;15.446;2023-04-20T05:54:26;2.00;;;1.77;;
19278;SDS011;9773;47.062;15.446;2023-04-20T05:56:55;1.53;;;1.53;;
19278;SDS011;9773;47.062;15.446;2023-04-20T05:59:22;2.20;;;2.00;;
19278;SDS011;9773;47.062;15.446;2023-04-20T06:01:49;2.20;;;2.10;;
19278;SDS011;9773;47.062;15.446;2023-04-20T06:04:15;2.07;;;1.93;;
19278;SDS011;9773;47.062;15.446;2023-04-20T06:06:41;2.10;;;2.00;;
19278;SDS011;9773;47.062;15.446;2023-04-20T06:09:07;1.70;;;1.60;;
19278;SDS011;9773;47.062;15.446;2023-04-20T06:11:32;1.80;;;1.70;;
19278;SDS011;9773;47.062;15.446;2023-04-20T06:13:58;1.60;;;1.60;;
19278;SDS011;9773;47.062;15.446;2023-04-20T06:16:24;2.30;;;2.20;;
19278;SDS011;9773;47.062;15.446;2023-04-20T06:18:50;1.53;;;1.50;;
19278;SDS011;9773;47.062;15.446;2023-04-20T06:21:15;1.73;;;1.67;;
19278;SDS011;9773;47.062;15.446;2023-04-20T06:23:42;2.33;;;2.07;;
19278;SDS011;9773;47.062;15.446;2023-04-20T06:26:08;2.10;;;2.00;;
19278;SDS011;9773;47.062;15.446;2023-04-20T06:28:38;2.43;;;2.20;;
19278;SDS011;9773;47.062;15.446;2023-04-20T06:31:03;2.30;;;2.20;;
19278;SDS011;9773;47.062;15.446;2023-04-20T06:33:30;3.73;;;3.43;;
19278;SDS011;9773;47.062;15.446;2023-04-20T06:35:56;2.43;;;2.33;;
19278;SDS011;9773;47.062;15.446;2023-04-20T06:38:22;1.93;;;1.83;;
19278;SDS011;9773;47.062;15.446;2023-04-20T06:40:49;3.07;;;2.70;;
19278;SDS011;9773;47.062;15.446;2023-04-20T06:43:15;3.50;;;2.30;;
19278;SDS011;9773;47.062;15.446;2023-04-20T06:45:41;2.77;;;2.57;;
19278;SDS011;9773;47.062;15.446;2023-04-20T06:48:06;2.40;;;2.30;;
19278;SDS011;9773;47.062;15.446;2023-04-20T06:50:32;2.27;;;2.17;;
19278;SDS011;9773;47.062;15.446;2023-04-20T06:52:58;1.90;;;1.80;;
19278;SDS011;9773;47.062;15.446;2023-04-20T06:55:26;2.50;;;2.30;;
19278;SDS011;9773;47.062;15.446;2023-04-20T06:57:52;2.30;;;2.20;;
19278;SDS011;9773;47.062;15.446;2023-04-20T07:00:18;2.50;;;2.30;;
19278;SDS011;9773;47.062;15.446;2023-04-20T07:02:44;2.20;;;2.00;;
19278;SDS011;9773;47.062;15.446;2023-04-20T07:05:15;3.37;;;2.20;;
19278;SDS011;9773;47.062;15.446;2023-04-20T07:07:42;2.50;;;2.30;;
19278;SDS011;9773;47.062;15.446;2023-04-20T07:10:08;2.40;;;2.30;;
19278;SDS011;9773;47.062;15.446;2023-04-20T07:12:36;3.83;;;2.40;;
19278;SDS011;9773;47.062;15.446;2023-04-20T07:15:03;2.40;;;2.20;;
19278;SDS011;9773;47.062;15.446;2023-04-20T07:17:30;2.20;;;2.10;;
19278;SDS011;9773;47.062;15.446;2023-04-20T07:19:56;2.27;;;2.07;;
19278;SDS011;9773;47.062;15.446;2023-04-20T07:22:23;3.03;;;2.30;;
19278;SDS011;9773;47.062;15.446;2023-04-20T07:24:49;3.93;;;2.07;;
19278;SDS011;9773;47.062;15.446;2023-04-20T07:27:16;2.30;;;2.20;;
19278;SDS011;9773;47.062;15.446;2023-04-20T07:29:42;2.77;;;2.30;;
19278;SDS011;9773;47.062;15.446;2023-04-20T07:32:08;3.43;;;2.10;;
19278;SDS011;9773;47.062;15.446;2023-04-20T07:34:33;2.33;;;2.13;;
19278;SDS011;9773;47.062;15.446;2023-04-20T07:36:59;2.57;;;2.47;;
19278;SDS011;9773;47.062;15.446;2023-04-20T07:39:25;2.93;;;2.20;;
19278;SDS011;9773;47.062;15.446;2023-04-20T07:41:52;2.20;;;2.10;;
19278;SDS011;9773;47.062;15.446;2023-04-20T07:44:18;2.13;;;2.03;;
19278;SDS011;9773;47.062;15.446;2023-04-20T07:46:44;2.30;;;2.20;;
19278;SDS011;9773;47.062;15.446;2023-04-20T07:49:10;2.30;;;2.20;;
19278;SDS011;9773;47.062;15.446;2023-04-20T07:51:36;2.43;;;2.33;;
19278;SDS011;9773;47.062;15.446;2023-04-20T07:54:01;2.47;;;2.27;;
19278;SDS011;9773;47.062;15.446;2023-04-20T07:56:27;4.30;;;2.50;;
19278;SDS011;9773;47.062;15.446;2023-04-20T07:58:53;2.70;;;2.50;;
19278;SDS011;9773;47.062;15.446;2023-04-20T08:01:24;6.70;;;3.00;;
19278;SDS011;9773;47.062;15.446;2023-04-20T08:03:50;2.47;;;2.37;;
19278;SDS011;9773;47.062;15.446;2023-04-20T08:06:16;2.37;;;2.27;;
19278;SDS011;9773;47.062;15.446;2023-04-20T08:08:42;2.53;;;2.33;;
19278;SDS011;9773;47.062;15.446;2023-04-20T08:11:07;2.40;;;2.30;;
19278;SDS011;9773;47.062;15.446;2023-04-20T08:13:34;2.17;;;2.07;;
19278;SDS011;9773;47.062;15.446;2023-04-20T08:16:01;3.47;;;2.40;;
19278;SDS011;9773;47.062;15.446;2023-04-20T08:18:26;2.43;;;2.23;;
19278;SDS011;9773;47.062;15.446;2023-04-20T08:20:54;2.90;;;2.60;;
19278;SDS011;9773;47.062;15.446;2023-04-20T08:23:20;2.67;;;2.50;;
19278;SDS011;9773;47.062;15.446;2023-04-20T08:25:51;2.13;;;2.03;;
19278;SDS011;9773;47.062;15.446;2023-04-20T08:28:18;2.73;;;2.53;;
19278;SDS011;9773;47.062;15.446;2023-04-20T08:30:43;2.60;;;2.50;;
19278;SDS011;9773;47.062;15.446;2023-04-20T08:33:10;2.57;;;2.37;;
19278;SDS011;9773;47.062;15.446;2023-04-20T08:35:36;2.33;;;2.23;;
19278;SDS011;9773;47.062;15.446;2023-04-20T08:38:02;2.77;;;2.67;;
19278;SDS011;9773;47.062;15.446;2023-04-20T08:40:29;2.77;;;2.57;;
19278;SDS011;9773;47.062;15.446;2023-04-20T08:42:56;3.87;;;2.70;;
19278;SDS011;9773;47.062;15.446;2023-04-20T08:45:23;2.93;;;2.73;;
19278;SDS011;9773;47.062;15.446;2023-04-20T08:47:52;3.47;;;2.60;;
19278;SDS011;9773;47.062;15.446;2023-04-20T08:50:19;2.43;;;2.33;;
19278;SDS011;9773;47.062;15.446;2023-04-20T08:52:45;2.40;;;2.30;;
19278;SDS011;9773;47.062;15.446;2023-04-20T08:55:17;2.70;;;2.50;;
19278;SDS011;9773;47.062;15.446;2023-04-20T08:57:43;3.07;;;2.17;;
19278;SDS011;9773;47.062;15.446;2023-04-20T09:00:09;2.57;;;2.47;;
19278;SDS011;9773;47.062;15.446;2023-04-20T09:02:36;2.30;;;2.20;;
19278;SDS011;9773;47.062;15.446;2023-04-20T09:05:26;2.37;;;2.27;;
19278;SDS011;9773;47.062;15.446;2023-04-20T09:07:54;2.53;;;2.33;;
19278;SDS011;9773;47.062;15.446;2023-04-20T09:10:22;2.30;;;1.90;;
19278;SDS011;9773;47.062;15.446;2023-04-20T09:12:51;2.50;;;2.07;;
19278;SDS011;9773;47.062;15.446;2023-04-20T09:15:24;3.23;;;2.67;;
19278;SDS011;9773;47.062;15.446;2023-04-20T09:17:51;2.40;;;2.20;;
19278;SDS011;9773;47.062;15.446;2023-04-20T09:20:25;2.83;;;2.63;;
19278;SDS011;9773;47.062;15.446;2023-04-20T09:22:52;2.60;;;2.40;;
19278;SDS011;9773;47.062;15.446;2023-04-20T09:25:18;2.40;;;2.30;;
19278;SDS011;9773;47.062;15.446;2023-04-20T09:27:57;2.40;;;2.30;;
19278;SDS011;9773;47.062;15.446;2023-04-20T09:30:35;2.17;;;2.07;;
19278;SDS011;9773;47.062;15.446;2023-04-20T09:33:05;2.97;;;2.10;;
19278;SDS011;9773;47.062;15.446;2023-04-20T09:35:36;2.53;;;2.43;;
19278;SDS011;9773;47.062;15.446;2023-04-20T09:38:05;2.30;;;2.20;;
19278;SDS011;9773;47.062;15.446;2023-04-20T09:40:31;2.37;;;2.27;;
19278;SDS011;9773;47.062;15.446;2023-04-20T09:42:59;2.30;;;2.20;;
19278;SDS011;9773;47.062;15.446;2023-04-20T09:45:28;2.50;;;2.40;;
19278;SDS011;9773;47.062;15.446;2023-04-20T09:47:54;2.50;;;2.30;;
19278;SDS011;9773;47.062;15.446;2023-04-20T09:50:20;2.20;;;2.10;;
19278;SDS011;9773;47.062;15.446;2023-04-20T09:52:46;2.27;;;2.17;;
19278;SDS011;9773;47.062;15.446;2023-04-20T09:55:13;2.50;;;2.40;;
19278;SDS011;9773;47.062;15.446;2023-04-20T09:57:39;2.60;;;2.40;;
19278;SDS011;9773;47.062;15.446;2023-04-20T10:00:05;2.57;;;2.20;;
19278;SDS011;9773;47.062;15.446;2023-04-20T10:02:35;2.50;;;2.30;;
19278;SDS011;9773;47.062;15.446;2023-04-20T10:05:02;2.60;;;2.50;;
19278;SDS011;9773;47.062;15.446;2023-04-20T10:07:30;2.97;;;2.77;;
19278;SDS011;9773;47.062;15.446;2023-04-20T10:10:07;2.53;;;2.43;;
19278;SDS011;9773;47.062;15.446;2023-04-20T10:12:46;2.40;;;2.30;;
19278;SDS011;9773;47.062;15.446;2023-04-20T10:15:13;2.13;;;2.03;;
19278;SDS011;9773;47.062;15.446;2023-04-20T10:17:39;2.57;;;2.37;;
19278;SDS011;9773;47.062;15.446;2023-04-20T10:20:16;2.50;;;2.30;;
19278;SDS011;9773;47.062;15.446;2023-04-20T10:22:52;2.60;;;2.50;;
19278;SDS011;9773;47.062;15.446;2023-04-20T10:25:20;2.70;;;2.60;;
19278;SDS011;9773;47.062;15.446;2023-04-20T10:27:58;2.83;;;2.73;;
19278;SDS011;9773;47.062;15.446;2023-04-20T10:30:28;2.80;;;2.53;;
19278;SDS011;9773;47.062;15.446;2023-04-20T10:35:41;2.50;;;2.30;;
19278;SDS011;9773;47.062;15.446;2023-04-20T10:38:10;2.80;;;2.60;;
19278;SDS011;9773;47.062;15.446;2023-04-20T10:40:36;2.53;;;2.43;;
19278;SDS011;9773;47.062;15.446;2023-04-20T10:43:16;2.80;;;2.60;;
19278;SDS011;9773;47.062;15.446;2023-04-20T10:45:46;2.50;;;2.40;;
19278;SDS011;9773;47.062;15.446;2023-04-20T10:48:12;2.70;;;2.50;;
19278;SDS011;9773;47.062;15.446;2023-04-20T10:50:38;2.40;;;2.30;;
19278;SDS011;9773;47.062;15.446;2023-04-20T10:53:04;2.60;;;2.40;;
19278;SDS011;9773;47.062;15.446;2023-04-20T10:55:31;2.50;;;2.40;;
19278;SDS011;9773;47.062;15.446;2023-04-20T10:57:58;2.77;;;2.63;;
19278;SDS011;9773;47.062;15.446;2023-04-20T11:00:24;2.73;;;2.50;;
19278;SDS011;9773;47.062;15.446;2023-04-20T11:02:53;3.73;;;2.50;;
19278;SDS011;9773;47.062;15.446;2023-04-20T11:05:23;2.40;;;2.30;;
19278;SDS011;9773;47.062;15.446;2023-04-20T11:07:58;3.43;;;3.07;;
19278;SDS011;9773;47.062;15.446;2023-04-20T11:10:38;2.87;;;2.67;;
19278;SDS011;9773;47.062;15.446;2023-04-20T11:13:06;3.70;;;3.40;;
19278;SDS011;9773;47.062;15.446;2023-04-20T11:15:43;3.30;;;3.10;;
19278;SDS011;9773;47.062;15.446;2023-04-20T11:18:09;2.90;;;2.70;;
19278;SDS011;9773;47.062;15.446;2023-04-20T11:20:36;3.20;;;3.00;;
19278;SDS011;9773;47.062;15.446;2023-04-20T11:23:02;3.23;;;3.03;;
19278;SDS011;9773;47.062;15.446;2023-04-20T11:25:30;2.73;;;2.60;;
19278;SDS011;9773;47.062;15.446;2023-04-20T11:28:08;3.03;;;2.40;;
19278;SDS011;9773;47.062;15.446;2023-04-20T11:30:40;3.07;;;2.77;;
19278;SDS011;9773;47.062;15.446;2023-04-20T11:33:06;3.03;;;2.70;;
19278;SDS011;9773;47.062;15.446;2023-04-20T11:35:39;2.57;;;2.33;;
19278;SDS011;9773;47.062;15.446;2023-04-20T11:38:06;2.80;;;2.60;;
19278;SDS011;9773;47.062;15.446;2023-04-20T11:40:32;3.23;;;3.03;;
19278;SDS011;9773;47.062;15.446;2023-04-20T11:42:59;3.07;;;2.80;;
19278;SDS011;9773;47.062;15.446;2023-04-20T11:45:25;2.67;;;2.57;;
19278;SDS011;9773;47.062;15.446;2023-04-20T11:47:52;1.90;;;1.80;;
19278;SDS011;9773;47.062;15.446;2023-04-20T11:50:20;2.57;;;2.43;;
19278;SDS011;9773;47.062;15.446;2023-04-20T11:52:46;2.63;;;2.50;;
19278;SDS011;9773;47.062;15.446;2023-04-20T11:55:12;3.00;;;2.70;;
19278;SDS011;9773;47.062;15.446;2023-04-20T11:57:38;3.03;;;2.73;;
19278;SDS011;9773;47.062;15.446;2023-04-20T12:00:04;2.77;;;2.60;;
19278;SDS011;9773;47.062;15.446;2023-04-20T12:02:31;2.73;;;2.50;;
19278;SDS011;9773;47.062;15.446;2023-04-20T12:04:56;2.40;;;2.30;;
19278;SDS011;9773;47.062;15.446;2023-04-20T12:07:25;2.53;;;2.43;;
19278;SDS011;9773;47.062;15.446;2023-04-20T12:09:52;3.23;;;3.00;;
19278;SDS011;9773;47.062;15.446;2023-04-20T12:12:18;2.53;;;2.33;;
19278;SDS011;9773;47.062;15.446;2023-04-20T12:14:44;2.90;;;2.60;;
19278;SDS011;9773;47.062;15.446;2023-04-20T12:17:09;2.63;;;2.43;;
19278;SDS011;9773;47.062;15.446;2023-04-20T12:19:35;3.00;;;2.80;;
19278;SDS011;9773;47.062;15.446;2023-04-20T12:22:01;2.57;;;2.47;;
19278;SDS011;9773;47.062;15.446;2023-04-20T12:24:27;2.70;;;2.60;;
19278;SDS011;9773;47.062;15.446;2023-04-20T12:26:53;2.33;;;2.23;;
19278;SDS011;9773;47.062;15.446;2023-04-20T12:29:19;2.70;;;2.60;;
19278;SDS011;9773;47.062;15.446;2023-04-20T12:31:44;2.90;;;2.70;;
19278;SDS011;9773;47.062;15.446;2023-04-20T12:34:10;3.13;;;2.90;;
19278;SDS011;9773;47.062;15.446;2023-04-20T12:36:36;2.63;;;2.53;;
19278;SDS011;9773;47.062;15.446;2023-04-20T12:39:02;2.50;;;2.40;;
19278;SDS011;9773;47.062;15.446;2023-04-20T12:41:28;2.70;;;2.47;;
19278;SDS011;9773;47.062;15.446;2023-04-20T12:43:54;2.63;;;2.47;;
19278;SDS011;9773;47.062;15.446;2023-04-20T12:46:20;2.97;;;2.77;;
19278;SDS011;9773;47.062;15.446;2023-04-20T12:48:46;2.70;;;2.60;;
19278;SDS011;9773;47.062;15.446;2023-04-20T12:51:13;6.90;;;2.87;;
19278;SDS011;9773;47.062;15.446;2023-04-20T12:53:39;2.63;;;2.43;;
19278;SDS011;9773;47.062;15.446;2023-04-20T12:56:06;2.70;;;2.50;;
19278;SDS011;9773;47.062;15.446;2023-04-20T12:58:32;2.70;;;2.50;;
19278;SDS011;9773;47.062;15.446;2023-04-20T13:00:57;3.00;;;2.80;;
19278;SDS011;9773;47.062;15.446;2023-04-20T13:03:23;3.10;;;2.90;;
19278;SDS011;9773;47.062;15.446;2023-04-20T13:05:49;2.90;;;2.70;;
19278;SDS011;9773;47.062;15.446;2023-04-20T13:08:15;2.93;;;2.60;;
19278;SDS011;9773;47.062;15.446;2023-04-20T13:10:41;3.00;;;2.80;;
19278;SDS011;9773;47.062;15.446;2023-04-20T13:13:07;2.63;;;2.53;;
19278;SDS011;9773;47.062;15.446;2023-04-20T13:15:35;3.10;;;2.90;;
19278;SDS011;9773;47.062;15.446;2023-04-20T13:18:01;3.07;;;2.87;;
19278;SDS011;9773;47.062;15.446;2023-04-20T13:20:27;3.00;;;2.80;;
19278;SDS011;9773;47.062;15.446;2023-04-20T13:22:58;4.00;;;2.63;;
19278;SDS011;9773;47.062;15.446;2023-04-20T13:25:29;3.43;;;2.63;;
19278;SDS011;9773;47.062;15.446;2023-04-20T13:27:57;2.60;;;2.50;;
19278;SDS011;9773;47.062;15.446;2023-04-20T13:30:24;2.50;;;2.40;;
19278;SDS011;9773;47.062;15.446;2023-04-20T13:32:50;2.40;;;2.30;;
19278;SDS011;9773;47.062;15.446;2023-04-20T13:35:16;2.73;;;2.60;;
19278;SDS011;9773;47.062;15.446;2023-04-20T13:37:43;2.50;;;2.30;;
19278;SDS011;9773;47.062;15.446;2023-04-20T13:40:09;2.53;;;2.43;;
19278;SDS011;9773;47.062;15.446;2023-04-20T13:42:35;2.63;;;2.43;;
19278;SDS011;9773;47.062;15.446;2023-04-20T13:45:01;2.50;;;2.40;;
19278;SDS011;9773;47.062;15.446;2023-04-20T13:47:28;2.90;;;2.70;;
19278;SDS011;9773;47.062;15.446;2023-04-20T13:49:54;2.53;;;2.43;;
19278;SDS011;9773;47.062;15.446;2023-04-20T13:52:20;2.63;;;2.43;;
19278;SDS011;9773;47.062;15.446;2023-04-20T13:54:46;2.30;;;2.20;;
19278;SDS011;9773;47.062;15.446;2023-04-20T13:57:12;2.60;;;2.40;;
19278;SDS011;9773;47.062;15.446;2023-04-20T13:59:38;2.57;;;2.40;;
19278;SDS011;9773;47.062;15.446;2023-04-20T14:02:03;2.60;;;2.40;;
19278;SDS011;9773;47.062;15.446;2023-04-20T14:04:29;2.53;;;2.40;;
19278;SDS011;9773;47.062;15.446;2023-04-20T14:06:55;2.43;;;2.30;;
19278;SDS011;9773;47.062;15.446;2023-04-20T14:09:21;2.50;;;2.40;;
19278;SDS011;9773;47.062;15.446;2023-04-20T14:11:46;2.83;;;2.63;;
19278;SDS011;9773;47.062;15.446;2023-04-20T14:14:12;2.40;;;2.30;;
19278;SDS011;9773;47.062;15.446;2023-04-20T14:16:42;2.90;;;2.70;;
19278;SDS011;9773;47.062;15.446;2023-04-20T14:19:08;6.43;;;2.50;;
19278;SDS011;9773;47.062;15.446;2023-04-20T14:21:34;2.53;;;2.40;;
19278;SDS011;9773;47.062;15.446;2023-04-20T14:24:00;2.70;;;2.50;;
19278;SDS011;9773;47.062;15.446;2023-04-20T14:26:26;2.77;;;2.57;;
19278;SDS011;9773;47.062;15.446;2023-04-20T14:28:52;2.90;;;2.70;;
19278;SDS011;9773;47.062;15.446;2023-04-20T14:31:18;2.77;;;2.63;;
19278;SDS011;9773;47.062;15.446;2023-04-20T14:33:44;3.20;;;2.63;;
19278;SDS011;9773;47.062;15.446;2023-04-20T14:36:10;3.20;;;3.00;;
19278;SDS011;9773;47.062;15.446;2023-04-20T14:38:36;2.80;;;2.70;;
19278;SDS011;9773;47.062;15.446;2023-04-20T14:41:02;2.90;;;2.70;;
19278;SDS011;9773;47.062;15.446;2023-04-20T14:43:28;2.53;;;2.43;;
19278;SDS011;9773;47.062;15.446;2023-04-20T14:45:54;5.87;;;2.67;;
19278;SDS011;9773;47.062;15.446;2023-04-20T14:48:19;3.03;;;2.83;;